sensor_id;sensor_type;location;lat;lon;timestamp;temperature;humidity
4602;DHT22;2313;48.552;9.370;2023-03-01T00:01:24;-1.80;99.90
4602;DHT22;2313;48.552;9.370;2023-03-01T00:03:51;-1.90;99.90
4602;DHT22;2313;48.552;9.370;2023-03-01T00:06:17;-1.90;99.90
4602;DHT22;2313;48.552;9.370;2023-03-01T00:08:43;-1.90;99.90
4602;DHT22;2313;48.552;9.370;2023-03-01T00:13:41;-1.90;99.90
4602;DHT22;2313;48.552;9.370;2023-03-01T00:16:09;-1.90;99.90
4602;DHT22;2313;48.552;9.370;2023-03-01T00:18:35;-1.90;99.90
4602;DHT22;2313;48.552;9.370;2023-03-01T00:21:01;-1.90;99.90
4602;DHT22;2313;48.552;9.370;2023-03-01T00:23:27;-1.90;99.90
4602;DHT22;2313;48.552;9.370;2023-03-01T00:25:54;-1.90;99.90
4602;DHT22;2313;48.552;9.370;2023-03-01T00:28:20;-1.90;99.90
4602;DHT22;2313;48.552;9.370;2023-03-01T00:30:45;-1.90;99.90
4602;DHT22;2313;48.552;9.370;2023-03-01T00:33:11;-2.00;99.90
4602;DHT22;2313;48.552;9.370;2023-03-01T00:35:37;-2.10;99.90
4602;DHT22;2313;48.552;9.370;2023-03-01T00:38:03;-2.10;99.90
4602;DHT22;2313;48.552;9.370;2023-03-01T00:40:31;-2.20;99.90
4602;DHT22;2313;48.552;9.370;2023-03-01T00:42:57;-2.20;99.90
4602;DHT22;2313;48.552;9.370;2023-03-01T00:45:23;-2.10;99.90
4602;DHT22;2313;48.552;9.370;2023-03-01T00:47:49;-2.10;99.90
4602;DHT22;2313;48.552;9.370;2023-03-01T00:50:16;-2.20;99.90
4602;DHT22;2313;48.552;9.370;2023-03-01T00:52:42;-2.20;99.90
4602;DHT22;2313;48.552;9.370;2023-03-01T00:55:08;-2.20;99.90
4602;DHT22;2313;48.552;9.370;2023-03-01T00:57:34;-2.30;99.90
4602;DHT22;2313;48.552;9.370;2023-03-01T00:59:59;-2.20;99.90
4602;DHT22;2313;48.552;9.370;2023-03-01T01:02:25;-2.20;99.90
4602;DHT22;2313;48.552;9.370;2023-03-01T01:04:51;-2.20;99.90
4602;DHT22;2313;48.552;9.370;2023-03-01T01:07:17;-2.20;99.90
4602;DHT22;2313;48.552;9.370;2023-03-01T01:09:43;-2.20;99.90
4602;DHT22;2313;48.552;9.370;2023-03-01T01:12:09;-2.30;99.90
4602;DHT22;2313;48.552;9.370;2023-03-01T01:14:35;-2.30;99.90
4602;DHT22;2313;48.552;9.370;2023-03-01T01:17:01;-2.30;99.90
4602;DHT22;2313;48.552;9.370;2023-03-01T01:19:27;-2.30;99.90
4602;DHT22;2313;48.552;9.370;2023-03-01T01:21:52;-2.30;99.90
4602;DHT22;2313;48.552;9.370;2023-03-01T01:24:19;-2.30;99.90
4602;DHT22;2313;48.552;9.370;2023-03-01T01:26:45;-2.30;99.90
4602;DHT22;2313;48.552;9.370;2023-03-01T01:29:11;-2.20;99.90
4602;DHT22;2313;48.552;9.370;2023-03-01T01:31:38;-2.20;99.90
4602;DHT22;2313;48.552;9.370;2023-03-01T01:34:06;-2.10;99.90
4602;DHT22;2313;48.552;9.370;2023-03-01T01:36:32;-2.10;99.90
4602;DHT22;2313;48.552;9.370;2023-03-01T01:38:58;-2.00;99.90
4602;DHT22;2313;48.552;9.370;2023-03-01T01:41:25;-2.00;99.90
4602;DHT22;2313;48.552;9.370;2023-03-01T01:44:14;-1.90;99.90
4602;DHT22;2313;48.552;9.370;2023-03-01T01:47:13;-1.80;99.90
4602;DHT22;2313;48.552;9.370;2023-03-01T01:49:53;-1.70;99.90
4602;DHT22;2313;48.552;9.370;2023-03-01T01:52:25;-1.60;99.90
4602;DHT22;2313;48.552;9.370;2023-03-01T01:55:16;-1.50;99.90
4602;DHT22;2313;48.552;9.370;2023-03-01T01:57:46;-1.50;99.90
4602;DHT22;2313;48.552;9.370;2023-03-01T02:00:21;-1.50;99.90
4602;DHT22;2313;48.552;9.370;2023-03-01T02:02:50;-1.40;99.90
4602;DHT22;2313;48.552;9.370;2023-03-01T02:07:56;-1.30;99.90
4602;DHT22;2313;48.552;9.370;2023-03-01T02:10:23;-1.20;99.90
4602;DHT22;2313;48.552;9.370;2023-03-01T02:12:49;-1.20;99.90
4602;DHT22;2313;48.552;9.370;2023-03-01T02:15:16;-1.20;99.90
4602;DHT22;2313;48.552;9.370;2023-03-01T02:17:41;-1.20;99.90
4602;DHT22;2313;48.552;9.370;2023-03-01T02:22:46;-1.10;99.90
4602;DHT22;2313;48.552;9.370;2023-03-01T02:28:08;-1.00;99.90
4602;DHT22;2313;48.552;9.370;2023-03-01T02:30:37;-1.00;99.90
4602;DHT22;2313;48.552;9.370;2023-03-01T02:33:22;-0.90;99.90
4602;DHT22;2313;48.552;9.370;2023-03-01T02:35:48;-0.90;99.90
4602;DHT22;2313;48.552;9.370;2023-03-01T02:38:14;-0.90;99.90
4602;DHT22;2313;48.552;9.370;2023-03-01T02:40:40;-0.90;99.90
4602;DHT22;2313;48.552;9.370;2023-03-01T02:43:09;-0.90;99.90
4602;DHT22;2313;48.552;9.370;2023-03-01T02:45:35;-0.90;99.90
4602;DHT22;2313;48.552;9.370;2023-03-01T02:48:01;-0.90;99.90
4602;DHT22;2313;48.552;9.370;2023-03-01T02:53:10;-0.80;99.90
4602;DHT22;2313;48.552;9.370;2023-03-01T02:55:36;-0.80;99.90
4602;DHT22;2313;48.552;9.370;2023-03-01T02:58:03;-0.80;99.90
4602;DHT22;2313;48.552;9.370;2023-03-01T03:00:32;-0.80;99.90
4602;DHT22;2313;48.552;9.370;2023-03-01T03:02:59;-0.80;99.90
4602;DHT22;2313;48.552;9.370;2023-03-01T03:05:30;-0.80;99.90
4602;DHT22;2313;48.552;9.370;2023-03-01T03:07:56;-0.70;99.90
4602;DHT22;2313;48.552;9.370;2023-03-01T03:10:24;-0.70;99.90
4602;DHT22;2313;48.552;9.370;2023-03-01T03:12:55;-0.80;99.90
4602;DHT22;2313;48.552;9.370;2023-03-01T03:15:21;-0.70;99.90
4602;DHT22;2313;48.552;9.370;2023-03-01T03:17:48;-0.70;99.90
4602;DHT22;2313;48.552;9.370;2023-03-01T03:20:16;-0.70;99.90
4602;DHT22;2313;48.552;9.370;2023-03-01T03:22:46;-0.70;99.90
4602;DHT22;2313;48.552;9.370;2023-03-01T03:25:12;-0.70;99.90
4602;DHT22;2313;48.552;9.370;2023-03-01T03:27:38;-0.60;99.90
4602;DHT22;2313;48.552;9.370;2023-03-01T03:30:06;-0.60;99.90
4602;DHT22;2313;48.552;9.370;2023-03-01T03:32:35;-0.70;99.90
4602;DHT22;2313;48.552;9.370;2023-03-01T03:35:01;-0.60;99.90
4602;DHT22;2313;48.552;9.370;2023-03-01T03:37:27;-0.50;99.90
4602;DHT22;2313;48.552;9.370;2023-03-01T03:40:12;-0.50;99.90
4602;DHT22;2313;48.552;9.370;2023-03-01T03:42:41;-0.50;99.90
4602;DHT22;2313;48.552;9.370;2023-03-01T03:45:06;-0.60;99.90
4602;DHT22;2313;48.552;9.370;2023-03-01T03:47:32;-0.60;99.90
4602;DHT22;2313;48.552;9.370;2023-03-01T03:49:58;-0.60;99.90
4602;DHT22;2313;48.552;9.370;2023-03-01T03:52:23;-0.60;99.90
4602;DHT22;2313;48.552;9.370;2023-03-01T03:54:49;-0.50;99.90
4602;DHT22;2313;48.552;9.370;2023-03-01T03:57:14;-0.60;99.90
4602;DHT22;2313;48.552;9.370;2023-03-01T03:59:40;-0.50;99.90
4602;DHT22;2313;48.552;9.370;2023-03-01T04:02:06;-0.60;99.90
4602;DHT22;2313;48.552;9.370;2023-03-01T04:04:34;-0.50;99.90
4602;DHT22;2313;48.552;9.370;2023-03-01T04:06:59;-0.50;99.90
4602;DHT22;2313;48.552;9.370;2023-03-01T04:09:25;-0.50;99.90
4602;DHT22;2313;48.552;9.370;2023-03-01T04:11:50;-0.50;99.90
4602;DHT22;2313;48.552;9.370;2023-03-01T04:14:16;-0.60;99.90
4602;DHT22;2313;48.552;9.370;2023-03-01T04:16:41;-0.50;99.90
4602;DHT22;2313;48.552;9.370;2023-03-01T04:19:07;-0.50;99.90
4602;DHT22;2313;48.552;9.370;2023-03-01T04:21:34;-0.50;99.90
4602;DHT22;2313;48.552;9.370;2023-03-01T04:24:01;-0.50;99.90
4602;DHT22;2313;48.552;9.370;2023-03-01T04:26:29;-0.50;99.90
4602;DHT22;2313;48.552;9.370;2023-03-01T04:28:54;-0.50;99.90
4602;DHT22;2313;48.552;9.370;2023-03-01T04:31:20;-0.50;99.90
4602;DHT22;2313;48.552;9.370;2023-03-01T04:33:47;-0.50;99.90
4602;DHT22;2313;48.552;9.370;2023-03-01T04:36:15;-0.50;99.90
4602;DHT22;2313;48.552;9.370;2023-03-01T04:38:41;-0.40;99.90
4602;DHT22;2313;48.552;9.370;2023-03-01T04:41:10;-0.50;99.90
4602;DHT22;2313;48.552;9.370;2023-03-01T04:43:37;-0.50;99.90
4602;DHT22;2313;48.552;9.370;2023-03-01T04:46:11;-0.40;99.90
4602;DHT22;2313;48.552;9.370;2023-03-01T04:48:38;-0.40;99.90
4602;DHT22;2313;48.552;9.370;2023-03-01T04:51:05;-0.40;99.90
4602;DHT22;2313;48.552;9.370;2023-03-01T04:53:31;-0.40;99.90
4602;DHT22;2313;48.552;9.370;2023-03-01T04:55:58;-0.30;99.90
4602;DHT22;2313;48.552;9.370;2023-03-01T04:58:25;-0.30;99.90
4602;DHT22;2313;48.552;9.370;2023-03-01T05:00:52;-0.30;99.90
4602;DHT22;2313;48.552;9.370;2023-03-01T05:03:17;-0.30;99.90
4602;DHT22;2313;48.552;9.370;2023-03-01T05:05:44;-0.30;99.90
4602;DHT22;2313;48.552;9.370;2023-03-01T05:08:11;-0.30;99.90
4602;DHT22;2313;48.552;9.370;2023-03-01T05:10:51;-0.30;99.90
4602;DHT22;2313;48.552;9.370;2023-03-01T05:13:18;-0.30;99.90
4602;DHT22;2313;48.552;9.370;2023-03-01T05:15:53;-0.30;99.90
4602;DHT22;2313;48.552;9.370;2023-03-01T05:18:18;-0.30;99.90
4602;DHT22;2313;48.552;9.370;2023-03-01T05:20:44;-0.40;99.90
4602;DHT22;2313;48.552;9.370;2023-03-01T05:23:10;-0.30;99.90
4602;DHT22;2313;48.552;9.370;2023-03-01T05:25:36;-0.40;99.90
4602;DHT22;2313;48.552;9.370;2023-03-01T05:28:06;-0.30;99.90
4602;DHT22;2313;48.552;9.370;2023-03-01T05:30:33;-0.30;99.90
4602;DHT22;2313;48.552;9.370;2023-03-01T05:33:00;-0.30;99.90
4602;DHT22;2313;48.552;9.370;2023-03-01T05:35:26;-0.30;99.90
4602;DHT22;2313;48.552;9.370;2023-03-01T05:37:52;-0.30;99.90
4602;DHT22;2313;48.552;9.370;2023-03-01T05:40:20;-0.30;99.90
4602;DHT22;2313;48.552;9.370;2023-03-01T05:42:53;-0.40;99.90
4602;DHT22;2313;48.552;9.370;2023-03-01T05:45:19;-0.40;99.90
4602;DHT22;2313;48.552;9.370;2023-03-01T05:47:46;-0.40;99.90
4602;DHT22;2313;48.552;9.370;2023-03-01T05:50:18;-0.40;99.90
4602;DHT22;2313;48.552;9.370;2023-03-01T05:52:45;-0.40;99.90
4602;DHT22;2313;48.552;9.370;2023-03-01T05:55:11;-0.40;99.90
4602;DHT22;2313;48.552;9.370;2023-03-01T05:57:37;-0.30;99.90
4602;DHT22;2313;48.552;9.370;2023-03-01T06:00:03;-0.30;99.90
4602;DHT22;2313;48.552;9.370;2023-03-01T06:02:28;-0.30;99.90
4602;DHT22;2313;48.552;9.370;2023-03-01T06:04:55;-0.30;99.90
4602;DHT22;2313;48.552;9.370;2023-03-01T06:07:20;-0.30;99.90
4602;DHT22;2313;48.552;9.370;2023-03-01T06:09:46;-0.30;99.90
4602;DHT22;2313;48.552;9.370;2023-03-01T06:12:12;-0.30;99.90
4602;DHT22;2313;48.552;9.370;2023-03-01T06:14:37;-0.40;99.90
4602;DHT22;2313;48.552;9.370;2023-03-01T06:17:03;-0.40;99.90
4602;DHT22;2313;48.552;9.370;2023-03-01T06:19:29;-0.50;99.90
4602;DHT22;2313;48.552;9.370;2023-03-01T06:21:54;-0.50;99.90
4602;DHT22;2313;48.552;9.370;2023-03-01T06:24:20;-0.60;99.90
4602;DHT22;2313;48.552;9.370;2023-03-01T06:26:45;-0.60;99.90
4602;DHT22;2313;48.552;9.370;2023-03-01T06:29:11;-0.60;99.90
4602;DHT22;2313;48.552;9.370;2023-03-01T06:31:36;-0.60;99.90
4602;DHT22;2313;48.552;9.370;2023-03-01T06:34:02;-0.60;99.90
4602;DHT22;2313;48.552;9.370;2023-03-01T06:36:28;-0.60;99.90
4602;DHT22;2313;48.552;9.370;2023-03-01T06:38:53;-0.70;99.90
4602;DHT22;2313;48.552;9.370;2023-03-01T06:41:19;-0.60;99.90
4602;DHT22;2313;48.552;9.370;2023-03-01T06:43:45;-0.60;99.90
4602;DHT22;2313;48.552;9.370;2023-03-01T06:46:10;-0.50;99.90
4602;DHT22;2313;48.552;9.370;2023-03-01T06:48:36;-0.50;99.90
4602;DHT22;2313;48.552;9.370;2023-03-01T06:51:01;-0.50;99.90
4602;DHT22;2313;48.552;9.370;2023-03-01T06:53:28;-0.40;99.90
4602;DHT22;2313;48.552;9.370;2023-03-01T06:55:55;-0.20;99.90
4602;DHT22;2313;48.552;9.370;2023-03-01T06:58:21;0.10;99.90
4602;DHT22;2313;48.552;9.370;2023-03-01T07:00:46;0.40;99.90
4602;DHT22;2313;48.552;9.370;2023-03-01T07:03:12;0.60;99.90
4602;DHT22;2313;48.552;9.370;2023-03-01T07:05:37;0.80;99.90
4602;DHT22;2313;48.552;9.370;2023-03-01T07:08:03;0.90;99.90
4602;DHT22;2313;48.552;9.370;2023-03-01T07:10:28;1.10;99.90
4602;DHT22;2313;48.552;9.370;2023-03-01T07:12:56;1.20;99.90
4602;DHT22;2313;48.552;9.370;2023-03-01T07:15:21;1.40;99.90
4602;DHT22;2313;48.552;9.370;2023-03-01T07:17:47;1.70;99.90
4602;DHT22;2313;48.552;9.370;2023-03-01T07:20:15;2.10;99.90
4602;DHT22;2313;48.552;9.370;2023-03-01T07:22:41;2.50;99.90
4602;DHT22;2313;48.552;9.370;2023-03-01T07:25:10;2.80;99.90
4602;DHT22;2313;48.552;9.370;2023-03-01T07:27:36;3.20;99.90
4602;DHT22;2313;48.552;9.370;2023-03-01T07:30:03;3.40;99.90
4602;DHT22;2313;48.552;9.370;2023-03-01T07:32:29;3.60;99.90
4602;DHT22;2313;48.552;9.370;2023-03-01T07:34:54;3.80;99.60
4602;DHT22;2313;48.552;9.370;2023-03-01T07:37:20;3.80;99.30
4602;DHT22;2313;48.552;9.370;2023-03-01T07:39:45;3.90;98.20
4602;DHT22;2313;48.552;9.370;2023-03-01T07:42:11;4.10;98.20
4602;DHT22;2313;48.552;9.370;2023-03-01T07:44:36;4.10;97.50
4602;DHT22;2313;48.552;9.370;2023-03-01T07:47:03;3.90;97.10
4602;DHT22;2313;48.552;9.370;2023-03-01T07:49:29;3.50;97.90
4602;DHT22;2313;48.552;9.370;2023-03-01T07:51:55;3.30;99.20
4602;DHT22;2313;48.552;9.370;2023-03-01T07:54:21;2.90;99.90
4602;DHT22;2313;48.552;9.370;2023-03-01T07:56:47;2.70;99.90
4602;DHT22;2313;48.552;9.370;2023-03-01T07:59:12;2.70;99.90
4602;DHT22;2313;48.552;9.370;2023-03-01T08:01:38;2.90;99.90
4602;DHT22;2313;48.552;9.370;2023-03-01T08:04:04;3.00;99.90
4602;DHT22;2313;48.552;9.370;2023-03-01T08:06:34;3.10;99.90
4602;DHT22;2313;48.552;9.370;2023-03-01T08:09:00;3.30;99.90
4602;DHT22;2313;48.552;9.370;2023-03-01T08:11:25;3.20;99.90
4602;DHT22;2313;48.552;9.370;2023-03-01T08:13:53;3.20;99.90
4602;DHT22;2313;48.552;9.370;2023-03-01T08:16:19;3.60;99.90
4602;DHT22;2313;48.552;9.370;2023-03-01T08:18:45;3.50;99.90
4602;DHT22;2313;48.552;9.370;2023-03-01T08:21:13;3.70;99.30
4602;DHT22;2313;48.552;9.370;2023-03-01T08:23:39;3.70;99.00
4602;DHT22;2313;48.552;9.370;2023-03-01T08:26:19;3.90;98.50
4602;DHT22;2313;48.552;9.370;2023-03-01T08:28:47;4.10;98.40
4602;DHT22;2313;48.552;9.370;2023-03-01T08:31:21;4.10;97.40
4602;DHT22;2313;48.552;9.370;2023-03-01T08:33:49;4.30;97.90
4602;DHT22;2313;48.552;9.370;2023-03-01T08:36:17;4.20;97.00
4602;DHT22;2313;48.552;9.370;2023-03-01T08:38:43;4.10;96.80
4602;DHT22;2313;48.552;9.370;2023-03-01T08:41:09;4.00;97.20
4602;DHT22;2313;48.552;9.370;2023-03-01T08:43:35;3.90;97.50
4602;DHT22;2313;48.552;9.370;2023-03-01T08:46:00;4.20;97.40
4602;DHT22;2313;48.552;9.370;2023-03-01T08:48:28;4.40;97.00
4602;DHT22;2313;48.552;9.370;2023-03-01T08:50:53;4.60;97.50
4602;DHT22;2313;48.552;9.370;2023-03-01T08:53:19;5.00;96.40
4602;DHT22;2313;48.552;9.370;2023-03-01T08:55:45;5.30;95.10
4602;DHT22;2313;48.552;9.370;2023-03-01T08:58:10;5.80;94.20
4602;DHT22;2313;48.552;9.370;2023-03-01T09:00:36;6.30;92.70
4602;DHT22;2313;48.552;9.370;2023-03-01T09:03:02;6.80;91.50
4602;DHT22;2313;48.552;9.370;2023-03-01T09:05:28;7.50;90.80
4602;DHT22;2313;48.552;9.370;2023-03-01T09:07:53;7.90;86.60
4602;DHT22;2313;48.552;9.370;2023-03-01T09:10:19;8.50;86.90
4602;DHT22;2313;48.552;9.370;2023-03-01T09:12:44;8.80;81.20
4602;DHT22;2313;48.552;9.370;2023-03-01T09:15:10;9.00;79.20
4602;DHT22;2313;48.552;9.370;2023-03-01T09:17:36;9.30;79.80
4602;DHT22;2313;48.552;9.370;2023-03-01T09:20:01;9.40;76.10
4602;DHT22;2313;48.552;9.370;2023-03-01T09:22:30;9.30;77.80
4602;DHT22;2313;48.552;9.370;2023-03-01T09:24:58;9.90;74.80
4602;DHT22;2313;48.552;9.370;2023-03-01T09:27:24;10.00;73.10
4602;DHT22;2313;48.552;9.370;2023-03-01T09:29:50;10.60;71.80
4602;DHT22;2313;48.552;9.370;2023-03-01T09:32:16;10.70;69.80
4602;DHT22;2313;48.552;9.370;2023-03-01T09:34:41;11.10;67.90
4602;DHT22;2313;48.552;9.370;2023-03-01T09:37:26;11.00;66.80
4602;DHT22;2313;48.552;9.370;2023-03-01T09:39:52;11.50;64.30
4602;DHT22;2313;48.552;9.370;2023-03-01T09:42:17;11.70;61.90
4602;DHT22;2313;48.552;9.370;2023-03-01T09:54:54;12.50;58.00
4602;DHT22;2313;48.552;9.370;2023-03-01T10:00:03;12.90;55.40
4602;DHT22;2313;48.552;9.370;2023-03-01T10:02:39;13.70;56.90
4602;DHT22;2313;48.552;9.370;2023-03-01T10:07:54;12.80;53.90
4602;DHT22;2313;48.552;9.370;2023-03-01T10:10:31;12.90;53.00
4602;DHT22;2313;48.552;9.370;2023-03-01T10:13:02;13.40;55.10
4602;DHT22;2313;48.552;9.370;2023-03-01T10:15:51;13.60;51.40
4602;DHT22;2313;48.552;9.370;2023-03-01T10:18:26;13.40;52.20
4602;DHT22;2313;48.552;9.370;2023-03-01T10:21:01;13.40;52.20
4602;DHT22;2313;48.552;9.370;2023-03-01T10:23:29;13.90;51.80
4602;DHT22;2313;48.552;9.370;2023-03-01T10:31:05;13.80;49.40
4602;DHT22;2313;48.552;9.370;2023-03-01T10:33:38;13.90;49.90
4602;DHT22;2313;48.552;9.370;2023-03-01T10:36:05;14.20;49.30
4602;DHT22;2313;48.552;9.370;2023-03-01T10:38:51;13.70;48.80
4602;DHT22;2313;48.552;9.370;2023-03-01T10:41:20;13.30;49.10
4602;DHT22;2313;48.552;9.370;2023-03-01T10:46:30;14.20;49.20
4602;DHT22;2313;48.552;9.370;2023-03-01T10:49:14;14.10;48.70
4602;DHT22;2313;48.552;9.370;2023-03-01T10:51:42;13.90;48.70
4602;DHT22;2313;48.552;9.370;2023-03-01T10:54:30;14.10;48.80
4602;DHT22;2313;48.552;9.370;2023-03-01T10:57:02;13.90;48.50
4602;DHT22;2313;48.552;9.370;2023-03-01T10:59:31;14.10;48.10
4602;DHT22;2313;48.552;9.370;2023-03-01T11:02:23;14.10;46.90
4602;DHT22;2313;48.552;9.370;2023-03-01T11:10:42;14.10;48.20
4602;DHT22;2313;48.552;9.370;2023-03-01T11:13:15;13.70;47.50
4602;DHT22;2313;48.552;9.370;2023-03-01T11:15:42;13.50;48.40
4602;DHT22;2313;48.552;9.370;2023-03-01T11:18:22;13.00;47.90
4602;DHT22;2313;48.552;9.370;2023-03-01T11:20:49;12.90;50.40
4602;DHT22;2313;48.552;9.370;2023-03-01T11:23:16;13.20;49.30
4602;DHT22;2313;48.552;9.370;2023-03-01T11:25:46;14.10;49.00
4602;DHT22;2313;48.552;9.370;2023-03-01T11:28:16;13.80;47.20
4602;DHT22;2313;48.552;9.370;2023-03-01T11:31:09;13.80;48.00
4602;DHT22;2313;48.552;9.370;2023-03-01T11:33:54;13.00;47.80
4602;DHT22;2313;48.552;9.370;2023-03-01T11:36:39;13.20;48.50
4602;DHT22;2313;48.552;9.370;2023-03-01T11:39:27;13.00;49.30
4602;DHT22;2313;48.552;9.370;2023-03-01T11:42:05;13.20;48.00
4602;DHT22;2313;48.552;9.370;2023-03-01T11:44:35;13.00;48.30
4602;DHT22;2313;48.552;9.370;2023-03-01T11:50:07;13.10;49.00
4602;DHT22;2313;48.552;9.370;2023-03-01T11:55:58;13.60;48.50
4602;DHT22;2313;48.552;9.370;2023-03-01T11:58:37;13.50;47.20
4602;DHT22;2313;48.552;9.370;2023-03-01T12:15:08;13.10;47.90
4602;DHT22;2313;48.552;9.370;2023-03-01T12:20:53;13.40;48.40
4602;DHT22;2313;48.552;9.370;2023-03-01T12:29:09;12.70;50.00
4602;DHT22;2313;48.552;9.370;2023-03-01T12:32:13;12.60;50.00
4602;DHT22;2313;48.552;9.370;2023-03-01T12:34:39;12.70;49.80
4602;DHT22;2313;48.552;9.370;2023-03-01T12:42:44;12.50;50.80
4602;DHT22;2313;48.552;9.370;2023-03-01T12:51:05;12.40;50.40
4602;DHT22;2313;48.552;9.370;2023-03-01T12:53:36;12.30;50.00
4602;DHT22;2313;48.552;9.370;2023-03-01T12:56:06;12.10;50.20
4602;DHT22;2313;48.552;9.370;2023-03-01T13:02:15;12.00;51.60
4602;DHT22;2313;48.552;9.370;2023-03-01T13:15:24;11.80;52.00
4602;DHT22;2313;48.552;9.370;2023-03-01T13:26:17;12.10;51.40
4602;DHT22;2313;48.552;9.370;2023-03-01T13:28:51;12.10;51.60
4602;DHT22;2313;48.552;9.370;2023-03-01T13:33:44;11.90;52.40
4602;DHT22;2313;48.552;9.370;2023-03-01T13:36:11;11.80;52.90
4602;DHT22;2313;48.552;9.370;2023-03-01T13:39:04;11.60;52.60
4602;DHT22;2313;48.552;9.370;2023-03-01T13:46:50;11.40;53.40
4602;DHT22;2313;48.552;9.370;2023-03-01T13:49:19;11.40;53.80
4602;DHT22;2313;48.552;9.370;2023-03-01T13:51:48;11.50;53.80
4602;DHT22;2313;48.552;9.370;2023-03-01T13:54:15;11.30;53.60
4602;DHT22;2313;48.552;9.370;2023-03-01T13:56:42;11.20;53.90
4602;DHT22;2313;48.552;9.370;2023-03-01T13:59:17;11.10;54.40
4602;DHT22;2313;48.552;9.370;2023-03-01T14:01:43;10.80;54.00
4602;DHT22;2313;48.552;9.370;2023-03-01T14:04:28;10.80;54.70
4602;DHT22;2313;48.552;9.370;2023-03-01T14:07:18;10.90;55.20
4602;DHT22;2313;48.552;9.370;2023-03-01T14:09:47;10.90;55.00
4602;DHT22;2313;48.552;9.370;2023-03-01T14:12:46;10.70;55.10
4602;DHT22;2313;48.552;9.370;2023-03-01T14:18:14;10.60;55.20
4602;DHT22;2313;48.552;9.370;2023-03-01T14:20:44;10.60;54.80
4602;DHT22;2313;48.552;9.370;2023-03-01T14:23:25;10.70;55.30
4602;DHT22;2313;48.552;9.370;2023-03-01T14:25:54;10.70;54.90
4602;DHT22;2313;48.552;9.370;2023-03-01T14:28:27;10.50;54.60
4602;DHT22;2313;48.552;9.370;2023-03-01T14:31:00;10.40;55.90
4602;DHT22;2313;48.552;9.370;2023-03-01T14:33:36;10.20;56.10
4602;DHT22;2313;48.552;9.370;2023-03-01T14:36:07;10.30;56.40
4602;DHT22;2313;48.552;9.370;2023-03-01T14:38:46;10.20;56.10
4602;DHT22;2313;48.552;9.370;2023-03-01T14:41:18;10.30;56.30
4602;DHT22;2313;48.552;9.370;2023-03-01T14:43:46;10.20;56.60
4602;DHT22;2313;48.552;9.370;2023-03-01T14:46:25;10.20;56.90
4602;DHT22;2313;48.552;9.370;2023-03-01T14:48:54;10.00;56.90
4602;DHT22;2313;48.552;9.370;2023-03-01T14:51:22;10.00;57.50
4602;DHT22;2313;48.552;9.370;2023-03-01T14:53:48;10.00;58.00
4602;DHT22;2313;48.552;9.370;2023-03-01T14:56:16;9.80;59.10
4602;DHT22;2313;48.552;9.370;2023-03-01T14:58:43;9.70;60.10
4602;DHT22;2313;48.552;9.370;2023-03-01T15:01:16;9.60;59.90
4602;DHT22;2313;48.552;9.370;2023-03-01T15:03:44;9.30;59.60
4602;DHT22;2313;48.552;9.370;2023-03-01T15:06:11;9.30;60.70
4602;DHT22;2313;48.552;9.370;2023-03-01T15:08:41;9.30;61.60
4602;DHT22;2313;48.552;9.370;2023-03-01T15:13:40;9.20;61.40
4602;DHT22;2313;48.552;9.370;2023-03-01T15:16:31;9.10;61.90
4602;DHT22;2313;48.552;9.370;2023-03-01T15:19:05;9.10;62.10
4602;DHT22;2313;48.552;9.370;2023-03-01T15:21:37;8.90;63.60
4602;DHT22;2313;48.552;9.370;2023-03-01T15:26:50;8.60;62.80
4602;DHT22;2313;48.552;9.370;2023-03-01T15:29:21;8.60;63.70
4602;DHT22;2313;48.552;9.370;2023-03-01T15:34:26;8.40;64.30
4602;DHT22;2313;48.552;9.370;2023-03-01T15:36:54;8.40;64.80
4602;DHT22;2313;48.552;9.370;2023-03-01T15:39:31;8.30;64.80
4602;DHT22;2313;48.552;9.370;2023-03-01T15:41:59;8.20;66.00
4602;DHT22;2313;48.552;9.370;2023-03-01T15:44:34;8.00;66.40
4602;DHT22;2313;48.552;9.370;2023-03-01T15:47:00;7.80;65.90
4602;DHT22;2313;48.552;9.370;2023-03-01T15:49:37;7.80;66.50
4602;DHT22;2313;48.552;9.370;2023-03-01T15:52:40;7.80;67.30
4602;DHT22;2313;48.552;9.370;2023-03-01T15:55:19;7.70;67.50
4602;DHT22;2313;48.552;9.370;2023-03-01T15:57:48;7.60;67.60
4602;DHT22;2313;48.552;9.370;2023-03-01T16:00:14;7.60;67.50
4602;DHT22;2313;48.552;9.370;2023-03-01T16:02:42;7.60;67.50
4602;DHT22;2313;48.552;9.370;2023-03-01T16:05:26;7.50;68.00
4602;DHT22;2313;48.552;9.370;2023-03-01T16:07:52;7.50;68.60
4602;DHT22;2313;48.552;9.370;2023-03-01T16:10:19;7.50;68.70
4602;DHT22;2313;48.552;9.370;2023-03-01T16:12:45;7.30;68.30
4602;DHT22;2313;48.552;9.370;2023-03-01T16:15:18;7.50;68.80
4602;DHT22;2313;48.552;9.370;2023-03-01T16:17:44;7.40;68.70
4602;DHT22;2313;48.552;9.370;2023-03-01T16:20:10;7.40;69.80
4602;DHT22;2313;48.552;9.370;2023-03-01T16:22:36;7.40;69.50
4602;DHT22;2313;48.552;9.370;2023-03-01T16:25:02;7.40;69.60
4602;DHT22;2313;48.552;9.370;2023-03-01T16:27:28;7.30;69.80
4602;DHT22;2313;48.552;9.370;2023-03-01T16:29:53;7.20;70.50
4602;DHT22;2313;48.552;9.370;2023-03-01T16:32:19;7.10;70.40
4602;DHT22;2313;48.552;9.370;2023-03-01T16:34:45;7.10;70.80
4602;DHT22;2313;48.552;9.370;2023-03-01T16:37:14;6.90;71.50
4602;DHT22;2313;48.552;9.370;2023-03-01T16:39:40;6.90;71.40
4602;DHT22;2313;48.552;9.370;2023-03-01T16:42:06;6.80;71.50
4602;DHT22;2313;48.552;9.370;2023-03-01T16:44:31;6.70;72.40
4602;DHT22;2313;48.552;9.370;2023-03-01T16:46:57;6.80;72.70
4602;DHT22;2313;48.552;9.370;2023-03-01T16:49:22;6.60;73.20
4602;DHT22;2313;48.552;9.370;2023-03-01T16:51:48;6.50;73.50
4602;DHT22;2313;48.552;9.370;2023-03-01T16:54:14;6.50;74.10
4602;DHT22;2313;48.552;9.370;2023-03-01T16:56:39;6.40;74.40
4602;DHT22;2313;48.552;9.370;2023-03-01T16:59:06;6.30;74.80
4602;DHT22;2313;48.552;9.370;2023-03-01T17:01:31;6.20;75.90
4602;DHT22;2313;48.552;9.370;2023-03-01T17:04:04;6.30;76.00
4602;DHT22;2313;48.552;9.370;2023-03-01T17:06:30;6.20;75.70
4602;DHT22;2313;48.552;9.370;2023-03-01T17:08:58;6.10;78.00
4602;DHT22;2313;48.552;9.370;2023-03-01T17:11:24;6.10;77.10
4602;DHT22;2313;48.552;9.370;2023-03-01T17:13:50;6.00;78.10
4602;DHT22;2313;48.552;9.370;2023-03-01T17:16:17;6.00;78.80
4602;DHT22;2313;48.552;9.370;2023-03-01T17:18:44;5.90;79.10
4602;DHT22;2313;48.552;9.370;2023-03-01T17:21:11;5.80;79.70
4602;DHT22;2313;48.552;9.370;2023-03-01T17:23:39;5.80;80.60
4602;DHT22;2313;48.552;9.370;2023-03-01T17:26:06;5.70;80.60
4602;DHT22;2313;48.552;9.370;2023-03-01T17:28:36;5.70;80.70
4602;DHT22;2313;48.552;9.370;2023-03-01T17:31:03;5.70;81.40
4602;DHT22;2313;48.552;9.370;2023-03-01T17:33:29;5.70;81.10
4602;DHT22;2313;48.552;9.370;2023-03-01T17:35:58;5.70;81.70
4602;DHT22;2313;48.552;9.370;2023-03-01T17:38:24;5.70;81.30
4602;DHT22;2313;48.552;9.370;2023-03-01T17:40:50;5.70;83.30
4602;DHT22;2313;48.552;9.370;2023-03-01T17:43:17;5.60;82.80
4602;DHT22;2313;48.552;9.370;2023-03-01T17:45:43;5.70;83.20
4602;DHT22;2313;48.552;9.370;2023-03-01T17:48:13;5.70;84.50
4602;DHT22;2313;48.552;9.370;2023-03-01T17:50:39;5.60;84.50
4602;DHT22;2313;48.552;9.370;2023-03-01T17:53:06;5.60;85.00
4602;DHT22;2313;48.552;9.370;2023-03-01T17:55:35;5.60;85.10
4602;DHT22;2313;48.552;9.370;2023-03-01T17:58:01;5.50;85.40
4602;DHT22;2313;48.552;9.370;2023-03-01T18:00:27;5.40;86.20
4602;DHT22;2313;48.552;9.370;2023-03-01T18:02:53;5.30;86.70
4602;DHT22;2313;48.552;9.370;2023-03-01T18:05:19;5.30;86.80
4602;DHT22;2313;48.552;9.370;2023-03-01T18:07:44;5.20;87.60
4602;DHT22;2313;48.552;9.370;2023-03-01T18:10:10;5.10;88.30
4602;DHT22;2313;48.552;9.370;2023-03-01T18:12:36;5.00;88.70
4602;DHT22;2313;48.552;9.370;2023-03-01T18:15:04;5.00;89.50
4602;DHT22;2313;48.552;9.370;2023-03-01T18:17:30;4.90;89.70
4602;DHT22;2313;48.552;9.370;2023-03-01T18:19:55;4.80;90.20
4602;DHT22;2313;48.552;9.370;2023-03-01T18:22:21;4.80;90.40